Turnerville, Alabama
Current Conditions -  °F | °C
As of 7:56 AM on Saturday 20 Dec 2014 (Local Time) from KMOB Reporting Station
Haze Haze  
Wind Chill:   Ceiling: 600
Heat Index:   Visibility: 5mi
Dew Point:   Wind: 9mph
Humidity: 96%   Direction: 30°NNE
Pressure: 30.15"   Gusts: NA
Location:  30.9846°N, 88.1229°W
Report Text: KMOB 201356Z 03008KT 5SM BR BKN006 OVC050 08/07 A3015 RMK AO2 RAE33 SLP208 P0002 T00780072 $
Loading
Personal Weather Stations






























Interactive Weather Map New forecast layout! Learn more

10-Day Weather Forecast

Advertisements
Track Severe Weather on mobile